Time;durP1;ratioP1;P1;durP2;ratioP2;P2;SDS_P1;SDS_P2;PMS_P1;PMS_P2;Temp;Humidity;BMP_temperature;BMP_pressure;BME280_temperature;BME280_humidity;BME280_pressure;Samples;Min_cycle;Max_cycle;Signal;HPM_P1;HPM_P2
2023/08/27 00:00:08;;;;;;;3.25;2.15;;;22.30;92.10;;;;;;5055853;28;20040;-65
2023/08/27 00:02:34;;;;;;;3.05;2.00;;;22.40;91.90;;;;;;5054282;28;20048;-69
2023/08/27 00:05:00;;;;;;;3.53;2.08;;;22.50;92.10;;;;;;5072942;28;20040;-67
2023/08/27 00:07:25;;;;;;;3.05;1.90;;;22.30;92.00;;;;;;5039517;28;20056;-66
2023/08/27 00:09:51;;;;;;;3.50;1.90;;;22.40;92.00;;;;;;5073855;28;20036;-67
2023/08/27 00:12:17;;;;;;;3.22;2.10;;;22.40;92.00;;;;;;5072720;28;20486;-64
2023/08/27 00:14:42;;;;;;;4.38;2.30;;;22.40;92.10;;;;;;5073114;28;20395;-70
2023/08/27 00:17:08;;;;;;;2.88;1.80;;;22.20;92.00;;;;;;5073796;28;20097;-73
2023/08/27 00:19:34;;;;;;;4.28;1.90;;;22.50;92.10;;;;;;5074280;28;20490;-64
2023/08/27 00:22:00;;;;;;;4.93;2.10;;;22.40;92.00;;;;;;5071334;28;20040;-69
2023/08/27 00:24:26;;;;;;;4.13;2.00;;;22.10;92.00;;;;;;5074018;28;20091;-70
2023/08/27 00:26:52;;;;;;;4.00;2.00;;;22.00;92.00;;;;;;5074173;28;20448;-65
2023/08/27 00:29:19;;;;;;;4.03;2.00;;;22.10;92.00;;;;;;5073860;28;20071;-64
2023/08/27 00:31:46;;;;;;;3.38;2.10;;;22.40;92.20;;;;;;5071734;28;20116;-66
2023/08/27 00:34:11;;;;;;;4.85;2.10;;;22.10;92.10;;;;;;5073654;28;20051;-65
2023/08/27 00:36:37;;;;;;;3.90;2.20;;;22.40;92.10;;;;;;5073816;28;20044;-65
2023/08/27 00:39:05;;;;;;;3.78;2.25;;;22.40;92.10;;;;;;5073463;28;20440;-71
2023/08/27 00:41:31;;;;;;;4.03;2.22;;;22.10;91.90;;;;;;5054647;28;20053;-62
2023/08/27 00:43:57;;;;;;;3.05;2.00;;;22.20;92.10;;;;;;5073410;28;20045;-67
2023/08/27 00:46:22;;;;;;;3.33;1.70;;;22.10;93.50;;;;;;5072965;28;20063;-68
2023/08/27 00:48:48;;;;;;;3.15;2.00;;;22.30;92.10;;;;;;5072820;28;20078;-66
2023/08/27 00:51:14;;;;;;;4.18;2.13;;;22.10;92.00;;;;;;5072117;28;20048;-70
2023/08/27 00:53:40;;;;;;;3.17;1.92;;;22.10;92.10;;;;;;5072111;28;20049;-63
2023/08/27 00:56:05;;;;;;;3.10;1.83;;;22.30;92.00;;;;;;5073232;28;20047;-65
2023/08/27 00:58:31;;;;;;;3.30;1.80;;;22.10;93.60;;;;;;5072689;28;20091;-67
2023/08/27 01:00:58;;;;;;;3.45;1.92;;;22.10;92.10;;;;;;5072863;28;20106;-65
2023/08/27 01:03:25;;;;;;;3.88;2.10;;;22.20;93.20;;;;;;5070751;28;20044;-64
2023/08/27 01:05:51;;;;;;;4.57;1.70;;;22.30;92.20;;;;;;5033715;28;20434;-65
2023/08/27 01:08:26;;;;;;;2.65;1.92;;;22.00;93.50;;;;;;5046869;28;20433;-66
2023/08/27 01:11:04;;;;;;;3.53;2.03;;;22.40;93.60;;;;;;5054953;28;20045;-64
2023/08/27 01:13:40;;;;;;;3.22;2.00;;;22.30;91.70;;;;;;5072986;28;20054;-64
2023/08/27 01:16:06;;;;;;;5.20;2.05;;;22.20;93.30;;;;;;5036480;28;20045;-63
2023/08/27 01:18:31;;;;;;;4.03;2.00;;;22.20;92.10;;;;;;5053242;28;20044;-66
2023/08/27 01:20:57;;;;;;;3.38;2.00;;;22.30;92.20;;;;;;5053553;28;20033;-64
2023/08/27 01:23:24;;;;;;;3.00;1.75;;;22.20;92.20;;;;;;5036794;28;20044;-65
2023/08/27 01:25:52;;;;;;;3.65;1.98;;;22.20;92.20;;;;;;5071641;28;20448;-65
2023/08/27 01:28:30;;;;;;;3.22;1.90;;;22.10;93.50;;;;;;5069893;28;20102;-64
2023/08/27 01:30:59;;;;;;;4.32;2.08;;;22.40;91.70;;;;;;5053336;28;20048;-66
2023/08/27 01:33:28;;;;;;;3.15;1.80;;;22.10;92.20;;;;;;5020708;28;20513;-65
2023/08/27 01:35:55;;;;;;;3.90;1.90;;;22.20;92.10;;;;;;5054579;28;20518;-67
2023/08/27 01:38:20;;;;;;;3.03;1.80;;;22.10;92.20;;;;;;5054481;28;20090;-65
2023/08/27 01:40:46;;;;;;;3.20;2.08;;;22.00;92.00;;;;;;5054879;28;20421;-63
2023/08/27 01:43:12;;;;;;;3.58;2.00;;;21.90;92.00;;;;;;5070831;28;20474;-65
2023/08/27 01:45:38;;;;;;;2.80;1.85;;;22.40;93.60;;;;;;5072145;28;20059;-66
2023/08/27 01:48:04;;;;;;;3.95;2.03;;;22.00;92.00;;;;;;5054414;28;20052;-66
2023/08/27 01:50:32;;;;;;;3.60;2.08;;;22.10;93.10;;;;;;5071040;28;20094;-63
2023/08/27 01:52:58;;;;;;;4.10;2.00;;;22.10;92.20;;;;;;5039955;28;20080;-64
2023/08/27 01:55:24;;;;;;;4.55;1.83;;;22.10;91.90;;;;;;5023366;28;20392;-65
2023/08/27 01:57:49;;;;;;;5.55;1.90;;;22.00;92.10;;;;;;5072303;28;20059;-64
2023/08/27 02:00:18;;;;;;;3.78;2.00;;;22.00;92.10;;;;;;5072127;28;20036;-64
2023/08/27 02:02:44;;;;;;;3.78;1.90;;;22.20;92.10;;;;;;5087812;28;20064;-64
2023/08/27 02:05:10;;;;;;;2.95;2.00;;;21.90;92.20;;;;;;5071204;28;20054;-63
2023/08/27 02:07:38;;;;;;;3.15;1.90;;;22.10;92.10;;;;;;5072202;28;20056;-63
2023/08/27 02:10:07;;;;;;;3.90;2.30;;;22.00;92.10;;;;;;5054966;28;20040;-64
2023/08/27 02:12:33;;;;;;;3.10;1.80;;;22.20;92.10;;;;;;5054025;28;20060;-63
2023/08/27 02:14:59;;;;;;;3.80;1.98;;;22.00;92.00;;;;;;5052578;28;20052;-66
2023/08/27 02:17:25;;;;;;;3.58;1.90;;;22.00;93.30;;;;;;5072066;28;20085;-64
2023/08/27 02:19:51;;;;;;;4.88;2.08;;;22.10;92.10;;;;;;5054413;28;20078;-62
2023/08/27 02:22:16;;;;;;;4.03;1.88;;;22.10;92.10;;;;;;5071969;28;20045;-63
2023/08/27 02:24:42;;;;;;;3.22;2.17;;;22.00;92.00;;;;;;5036328;28;20048;-62
2023/08/27 02:27:08;;;;;;;4.18;1.98;;;22.00;93.20;;;;;;5086338;28;20056;-68
2023/08/27 02:29:35;;;;;;;3.72;2.05;;;21.90;92.10;;;;;;5052606;28;20143;-69
2023/08/27 02:32:02;;;;;;;3.60;1.73;;;21.90;93.10;;;;;;5053871;28;20057;-70
2023/08/27 02:34:28;;;;;;;4.35;2.20;;;21.90;92.40;;;;;;5074192;28;20048;-68
2023/08/27 02:36:54;;;;;;;6.00;2.40;;;22.00;93.50;;;;;;5074879;28;20048;-69
2023/08/27 02:39:19;;;;;;;3.72;2.00;;;22.00;92.10;;;;;;5058154;28;20109;-66
2023/08/27 02:41:45;;;;;;;3.78;2.28;;;22.20;92.10;;;;;;5076072;28;20040;-69
2023/08/27 02:44:11;;;;;;;4.20;1.90;;;22.00;92.10;;;;;;5075627;28;20096;-66
2023/08/27 02:46:36;;;;;;;3.40;2.10;;;22.00;92.10;;;;;;5075144;28;20054;-69
2023/08/27 02:49:02;;;;;;;3.40;2.03;;;22.10;93.10;;;;;;5074129;28;20048;-71
2023/08/27 02:51:28;;;;;;;3.55;1.90;;;22.10;92.00;;;;;;5075613;28;20047;-71
2023/08/27 02:53:55;;;;;;;3.35;1.90;;;22.10;92.10;;;;;;5074870;28;20084;-67
2023/08/27 02:56:21;;;;;;;4.18;1.77;;;22.00;92.10;;;;;;5075845;28;20068;-70
2023/08/27 02:58:48;;;;;;;4.15;2.22;;;22.10;92.10;;;;;;5074137;28;20368;-69
2023/08/27 03:01:20;;;;;;;3.97;2.35;;;22.00;93.10;;;;;;5075390;28;20119;-70
2023/08/27 03:03:49;;;;;;;4.47;1.83;;;21.90;92.20;;;;;;5056304;28;20107;-68
2023/08/27 03:06:15;;;;;;;3.47;1.85;;;22.20;93.60;;;;;;5075309;28;20490;-68
2023/08/27 03:08:40;;;;;;;3.22;1.73;;;22.00;92.10;;;;;;5075537;28;20138;-70
2023/08/27 03:11:06;;;;;;;2.65;1.50;;;21.90;92.00;;;;;;5075162;28;20055;-67
2023/08/27 03:13:32;;;;;;;3.47;1.75;;;21.80;93.50;;;;;;5073544;28;20056;-68
2023/08/27 03:15:58;;;;;;;5.47;1.90;;;21.80;92.00;;;;;;5057110;28;20051;-67
2023/08/27 03:18:24;;;;;;;3.50;1.80;;;21.90;92.20;;;;;;5075264;28;20398;-67
2023/08/27 03:20:51;;;;;;;3.13;1.60;;;22.00;93.70;;;;;;5075367;28;20044;-68
2023/08/27 03:23:17;;;;;;;2.63;1.70;;;22.00;92.20;;;;;;5072285;28;20036;-70
2023/08/27 03:25:43;;;;;;;4.18;1.92;;;21.80;92.10;;;;;;5074505;28;20052;-67
2023/08/27 03:28:09;;;;;;;3.45;2.00;;;21.90;92.10;;;;;;5074516;28;20047;-65
2023/08/27 03:30:35;;;;;;;2.15;1.50;;;22.00;93.20;;;;;;5055472;28;20048;-69
2023/08/27 03:33:00;;;;;;;3.22;1.85;;;21.90;92.20;;;;;;5073980;28;20094;-68
2023/08/27 03:35:26;;;;;;;3.42;1.75;;;21.90;92.10;;;;;;5055481;28;20048;-67
2023/08/27 03:37:52;;;;;;;3.22;1.75;;;22.00;93.30;;;;;;5040455;28;20059;-66
2023/08/27 03:40:18;;;;;;;2.90;1.80;;;21.90;93.10;;;;;;5056962;28;20059;-62
2023/08/27 03:42:43;;;;;;;2.38;1.55;;;22.00;93.70;;;;;;5073066;28;20119;-70
2023/08/27 03:45:10;;;;;;;4.05;1.90;;;22.00;92.10;;;;;;5070963;28;20564;-71
2023/08/27 03:47:35;;;;;;;2.45;1.75;;;21.90;92.10;;;;;;5074413;28;20044;-68
2023/08/27 03:50:01;;;;;;;3.83;1.98;;;21.80;93.50;;;;;;5056284;28;20547;-68
2023/08/27 03:52:27;;;;;;;2.95;1.80;;;21.80;92.00;;;;;;5039648;28;20486;-68
2023/08/27 03:54:53;;;;;;;3.20;2.00;;;21.80;92.00;;;;;;5072957;28;20041;-69
2023/08/27 03:57:18;;;;;;;4.22;1.80;;;21.90;93.10;;;;;;5056320;28;20040;-65
2023/08/27 03:59:44;;;;;;;3.35;1.80;;;21.90;92.10;;;;;;5056409;28;20787;-64
2023/08/27 04:02:10;;;;;;;2.90;1.83;;;22.00;92.10;;;;;;5074569;28;20052;-65
2023/08/27 04:04:36;;;;;;;3.78;1.92;;;21.90;92.10;;;;;;5054847;28;20125;-69
2023/08/27 04:07:03;;;;;;;3.30;1.80;;;21.80;92.00;;;;;;5074117;28;20072;-66
2023/08/27 04:09:28;;;;;;;3.42;2.00;;;21.90;93.30;;;;;;5056197;28;20426;-68
2023/08/27 04:11:54;;;;;;;2.60;1.77;;;21.70;93.50;;;;;;5074375;28;20102;-69
2023/08/27 04:14:20;;;;;;;3.10;1.90;;;21.80;93.40;;;;;;5072854;28;20040;-66
2023/08/27 04:16:47;;;;;;;4.05;1.83;;;21.60;92.00;;;;;;5074063;28;20036;-70
2023/08/27 04:19:13;;;;;;;5.00;1.83;;;21.90;92.00;;;;;;5072761;28;20048;-67
2023/08/27 04:21:39;;;;;;;2.65;1.90;;;21.80;91.90;;;;;;5071712;28;20040;-65
2023/08/27 04:24:05;;;;;;;4.35;1.88;;;21.70;93.10;;;;;;5055892;28;20131;-63
2023/08/27 04:26:31;;;;;;;4.22;2.25;;;21.50;91.80;;;;;;5055879;28;20091;-68
2023/08/27 04:28:57;;;;;;;2.97;1.80;;;21.70;92.00;;;;;;5055534;28;20083;-69
2023/08/27 04:31:22;;;;;;;5.75;2.20;;;21.60;92.00;;;;;;5072417;28;20106;-67
2023/08/27 04:33:48;;;;;;;5.18;1.85;;;21.60;93.00;;;;;;5073944;28;20551;-67
2023/08/27 04:36:14;;;;;;;2.53;1.60;;;21.70;93.20;;;;;;5073945;28;20047;-67
2023/08/27 04:38:40;;;;;;;2.78;1.75;;;21.50;93.30;;;;;;5073776;28;20482;-64
2023/08/27 04:41:06;;;;;;;3.28;1.83;;;;;;;;;;5072347;28;20725;-61
2023/08/27 04:43:32;;;;;;;3.60;1.65;;;21.70;93.10;;;;;;5072774;28;20045;-63
2023/08/27 04:45:58;;;;;;;3.75;1.90;;;21.60;93.20;;;;;;5055088;28;20060;-66
2023/08/27 04:48:24;;;;;;;2.83;1.75;;;21.80;92.10;;;;;;5073670;28;20044;-66
2023/08/27 04:50:49;;;;;;;3.17;1.65;;;21.70;92.10;;;;;;5071645;28;20041;-64
2023/08/27 04:53:15;;;;;;;2.95;1.85;;;21.60;93.30;;;;;;5051433;28;20441;-66
2023/08/27 04:55:41;;;;;;;3.15;1.70;;;21.80;93.50;;;;;;5051912;28;20166;-64
2023/08/27 04:58:08;;;;;;;3.25;1.80;;;21.80;92.10;;;;;;5051952;28;20052;-66
2023/08/27 05:00:34;;;;;;;3.15;1.90;;;21.90;93.30;;;;;;5051731;28;20053;-66
2023/08/27 05:03:01;;;;;;;3.33;1.80;;;21.90;93.60;;;;;;5018104;28;20127;-64
2023/08/27 05:05:27;;;;;;;2.88;1.90;;;21.90;93.40;;;;;;5051247;28;20049;-64
2023/08/27 05:07:54;;;;;;;3.13;1.95;;;21.80;93.00;;;;;;5051304;28;20450;-65
2023/08/27 05:10:20;;;;;;;4.47;1.92;;;22.00;93.00;;;;;;5051765;28;20045;-66
2023/08/27 05:12:46;;;;;;;3.15;1.80;;;22.10;91.90;;;;;;5051670;28;20041;-64
2023/08/27 05:15:12;;;;;;;3.15;1.95;;;21.90;93.10;;;;;;5050410;28;20071;-66
2023/08/27 05:17:38;;;;;;;3.47;1.70;;;21.90;92.90;;;;;;5049090;28;20057;-64
2023/08/27 05:20:04;;;;;;;3.92;1.80;;;21.90;91.60;;;;;;5051153;28;20057;-64
2023/08/27 05:22:30;;;;;;;3.35;2.00;;;22.00;91.50;;;;;;5049382;28;20457;-63
2023/08/27 05:24:56;;;;;;;3.60;1.70;;;21.90;92.70;;;;;;5052912;28;20049;-63
2023/08/27 05:27:21;;;;;;;3.30;1.90;;;22.20;91.60;;;;;;5052673;28;20502;-65
2023/08/27 05:29:47;;;;;;;4.68;2.00;;;21.90;92.50;;;;;;5052425;28;20080;-65
2023/08/27 05:32:13;;;;;;;4.03;1.80;;;22.20;91.50;;;;;;5051329;28;20083;-65
2023/08/27 05:34:39;;;;;;;3.58;2.10;;;22.10;92.70;;;;;;5049299;28;20041;-66
2023/08/27 05:37:05;;;;;;;4.82;1.92;;;22.10;91.40;;;;;;5052431;28;20041;-65
2023/08/27 05:39:30;;;;;;;3.17;1.90;;;21.80;91.40;;;;;;5052481;28;20037;-64
2023/08/27 05:41:56;;;;;;;3.65;1.80;;;21.90;91.40;;;;;;5052440;28;20132;-64
2023/08/27 05:44:22;;;;;;;3.22;1.83;;;22.00;92.50;;;;;;5051084;28;20029;-61
2023/08/27 05:46:48;;;;;;;3.97;2.10;;;21.80;91.40;;;;;;5049081;28;20037;-64
2023/08/27 05:49:14;;;;;;;3.35;1.88;;;21.80;91.30;;;;;;5052681;28;20513;-63
2023/08/27 05:51:40;;;;;;;2.88;1.60;;;21.90;91.40;;;;;;5050648;28;20494;-66
2023/08/27 05:54:05;;;;;;;3.47;2.10;;;21.80;91.40;;;;;;5069029;28;20145;-64
2023/08/27 05:56:31;;;;;;;3.00;1.90;;;23.90;91.70;;;;;;5071794;28;20053;-63
2023/08/27 05:58:57;;;;;;;2.75;1.70;;;22.10;91.50;;;;;;5072291;28;20068;-64
2023/08/27 06:01:24;;;;;;;2.58;1.70;;;21.90;92.80;;;;;;5070955;28;20051;-63
2023/08/27 06:03:49;;;;;;;4.47;1.98;;;22.00;92.80;;;;;;5072476;28;20041;-63
2023/08/27 06:06:15;;;;;;;3.75;1.98;;;21.90;91.40;;;;;;5072410;28;20048;-62
2023/08/27 06:08:41;;;;;;;3.17;1.83;;;22.00;91.40;;;;;;5071376;28;20040;-72
2023/08/27 06:11:08;;;;;;;3.08;1.80;;;21.80;91.30;;;;;;5070635;28;20068;-68
2023/08/27 06:13:33;;;;;;;2.83;1.58;;;21.90;92.70;;;;;;5070971;28;20102;-67
2023/08/27 06:15:59;;;;;;;2.95;1.52;;;22.30;91.50;;;;;;5071454;28;20048;-68
2023/08/27 06:18:25;;;;;;;3.53;1.80;;;22.00;91.50;;;;;;5087728;28;20057;-71
2023/08/27 06:20:51;;;;;;;3.50;1.80;;;22.10;91.50;;;;;;5072331;28;20401;-68
2023/08/27 06:23:18;;;;;;;3.13;1.90;;;22.00;92.50;;;;;;5071660;28;20036;-66
2023/08/27 06:25:44;;;;;;;3.28;1.88;;;22.00;91.40;;;;;;5069424;28;20044;-67
2023/08/27 06:28:10;;;;;;;4.07;1.80;;;22.10;92.70;;;;;;5070955;28;20484;-64
2023/08/27 06:30:41;;;;;;;3.45;1.70;;;22.10;92.90;;;;;;5072116;28;20451;-69
2023/08/27 06:33:09;;;;;;;3.17;1.70;;;22.10;92.50;;;;;;5054598;28;20045;-64
2023/08/27 06:35:36;;;;;;;4.57;1.90;;;22.20;91.40;;;;;;5052526;28;20520;-70
2023/08/27 06:38:02;;;;;;;4.32;1.90;;;22.30;91.40;;;;;;5053988;28;20552;-65
2023/08/27 06:40:29;;;;;;;3.28;1.80;;;22.30;91.10;;;;;;5053145;28;20060;-68
2023/08/27 06:42:56;;;;;;;6.15;2.20;;;22.40;92.20;;;;;;5036311;28;20044;-66
2023/08/27 06:45:22;;;;;;;3.92;1.80;;;22.70;92.20;;;;;;5069910;28;20053;-67
2023/08/27 06:47:47;;;;;;;3.60;1.80;;;22.70;91.10;;;;;;5053164;28;20506;-72
2023/08/27 06:50:13;;;;;;;3.97;1.90;;;22.40;91.00;;;;;;5086999;28;20050;-67
2023/08/27 06:52:39;;;;;;;3.53;1.90;;;22.30;90.90;;;;;;5070589;28;20083;-66
2023/08/27 06:55:05;;;;;;;3.08;1.63;;;22.50;90.80;;;;;;5051880;28;20056;-68
2023/08/27 06:57:31;;;;;;;3.22;1.80;;;22.60;92.20;;;;;;5071015;28;20160;-70
2023/08/27 06:59:56;;;;;;;3.92;1.90;;;22.50;92.30;;;;;;5053007;28;20072;-66
2023/08/27 07:02:22;;;;;;;3.65;1.88;;;22.40;90.90;;;;;;5070617;28;20044;-65
2023/08/27 07:04:48;;;;;;;4.68;1.90;;;22.70;91.00;;;;;;5070679;28;20135;-72
2023/08/27 07:07:14;;;;;;;4.00;1.80;;;22.50;90.90;;;;;;5085473;28;20049;-65
2023/08/27 07:09:40;;;;;;;5.22;2.00;;;22.50;90.90;;;;;;5086669;28;20045;-69
2023/08/27 07:12:06;;;;;;;4.03;1.85;;;22.30;90.90;;;;;;5070402;28;20702;-73
2023/08/27 07:14:32;;;;;;;4.65;1.77;;;22.30;90.80;;;;;;5070937;28;20132;-65
2023/08/27 07:16:57;;;;;;;4.95;1.73;;;22.40;90.90;;;;;;5069176;28;20098;-70
2023/08/27 07:19:23;;;;;;;4.20;1.73;;;22.40;92.20;;;;;;5068066;28;20049;-70
2023/08/27 07:21:49;;;;;;;3.65;1.85;;;22.50;92.60;;;;;;5073936;28;20107;-65
2023/08/27 07:24:15;;;;;;;4.13;1.70;;;22.40;91.00;;;;;;5074328;28;20055;-70
2023/08/27 07:26:41;;;;;;;3.38;1.58;;;22.40;91.10;;;;;;5074249;28;20121;-64
2023/08/27 07:29:06;;;;;;;3.92;2.05;;;22.30;91.10;;;;;;5073864;28;20044;-65
2023/08/27 07:31:32;;;;;;;4.38;2.00;;;22.40;91.10;;;;;;5072978;28;20033;-67
2023/08/27 07:33:58;;;;;;;3.60;1.83;;;22.20;92.70;;;;;;5074269;28;20041;-65
2023/08/27 07:36:24;;;;;;;4.57;2.05;;;22.20;92.30;;;;;;5073799;28;20048;-65
2023/08/27 07:38:51;;;;;;;2.95;1.60;;;22.40;91.30;;;;;;5073802;28;20048;-65
2023/08/27 07:41:17;;;;;;;3.95;1.98;;;21.90;91.30;;;;;;5072974;28;20493;-71
2023/08/27 07:43:42;;;;;;;4.53;1.70;;;22.20;92.70;;;;;;5072328;28;20084;-68
2023/08/27 07:46:08;;;;;;;2.92;1.60;;;22.00;91.30;;;;;;5073331;28;20047;-65
2023/08/27 07:48:34;;;;;;;4.75;1.80;;;22.20;91.40;;;;;;5073474;28;20482;-67
2023/08/27 07:51:02;;;;;;;3.28;1.70;;;22.00;92.50;;;;;;5072147;28;20055;-69
2023/08/27 07:53:28;;;;;;;3.95;1.60;;;22.20;92.70;;;;;;5088603;28;20044;-69
2023/08/27 07:55:54;;;;;;;4.57;1.52;;;22.20;92.80;;;;;;5088284;28;20102;-65
2023/08/27 07:58:20;;;;;;;3.92;1.83;;;22.20;93.10;;;;;;5072712;28;20068;-71
2023/08/27 08:00:45;;;;;;;3.65;1.63;;;22.10;91.40;;;;;;5087926;28;20084;-71
2023/08/27 08:03:11;;;;;;;3.47;1.80;;;21.80;91.40;;;;;;5073726;28;20048;-67
2023/08/27 08:05:37;;;;;;;3.75;1.67;;;22.00;91.50;;;;;;5072093;28;20044;-66
2023/08/27 08:08:03;;;;;;;2.75;1.60;;;22.10;91.60;;;;;;5073065;28;20072;-68
2023/08/27 08:10:29;;;;;;;3.63;1.77;;;22.20;93.00;;;;;;5068686;28;20068;-69
2023/08/27 08:12:55;;;;;;;4.53;2.05;;;22.00;91.60;;;;;;5072545;28;20095;-64
2023/08/27 08:15:20;;;;;;;4.93;1.90;;;22.20;91.60;;;;;;5072785;28;20060;-73
2023/08/27 08:17:46;;;;;;;4.03;1.98;;;22.10;91.60;;;;;;5070798;28;20033;-67
2023/08/27 08:20:13;;;;;;;4.00;1.80;;;22.20;91.60;;;;;;5073514;28;20072;-64
2023/08/27 08:22:39;;;;;;;4.00;1.80;;;22.10;92.90;;;;;;5054504;28;20028;-69
2023/08/27 08:25:06;;;;;;;4.72;2.05;;;22.20;91.60;;;;;;5071822;28;20053;-68
2023/08/27 08:27:33;;;;;;;3.67;2.00;;;22.30;91.60;;;;;;5068168;28;20048;-64
2023/08/27 08:30:00;;;;;;;3.67;1.98;;;22.30;91.50;;;;;;5073017;28;20124;-66
2023/08/27 08:32:26;;;;;;;3.38;1.75;;;22.10;91.50;;;;;;5070973;28;20379;-69
2023/08/27 08:34:54;;;;;;;3.85;1.65;;;22.50;91.40;;;;;;5073849;28;20048;-63
2023/08/27 08:37:19;;;;;;;3.30;1.63;;;22.60;91.40;;;;;;5070218;28;20076;-65
2023/08/27 08:39:45;;;;;;;4.45;1.70;;;22.70;92.50;;;;;;5053172;28;20087;-70
2023/08/27 08:42:24;;;;;;;2.65;1.50;;;22.60;91.20;;;;;;5070114;28;20044;-68
2023/08/27 08:45:00;;;;;;;4.82;1.80;;;23.00;90.70;;;;;;5038214;28;20040;-63
2023/08/27 08:47:26;;;;;;;3.40;1.63;;;23.10;92.20;;;;;;5072206;28;20079;-66
2023/08/27 08:49:54;;;;;;;2.88;1.50;;;23.20;91.00;;;;;;5038386;28;20094;-69
2023/08/27 08:52:21;;;;;;;2.88;1.30;;;23.30;92.00;;;;;;5054695;28;20057;-64
2023/08/27 08:54:51;;;;;;;4.13;1.30;;;23.30;90.80;;;;;;5070601;28;20056;-67
2023/08/27 08:57:17;;;;;;;3.35;1.50;;;23.40;91.80;;;;;;5068610;28;20080;-64
2023/08/27 08:59:42;;;;;;;3.38;1.65;;;23.40;90.60;;;;;;5030502;28;20394;-64
2023/08/27 09:02:10;;;;;;;3.85;1.50;;;23.70;90.70;;;;;;5069760;28;20439;-62
2023/08/27 09:04:36;;;;;;;3.17;1.50;;;23.50;90.60;;;;;;5037125;28;20487;-66
2023/08/27 09:07:03;;;;;;;3.03;1.70;;;23.90;90.60;;;;;;5046004;28;20482;-64
2023/08/27 09:09:29;;;;;;;2.08;1.30;;;23.90;90.40;;;;;;5036999;28;20044;-67
2023/08/27 09:11:55;;;;;;;3.47;1.48;;;24.00;90.30;;;;;;5032351;28;20501;-66
2023/08/27 09:14:20;;;;;;;3.47;1.30;;;23.90;90.10;;;;;;5051449;28;20112;-63
2023/08/27 09:16:46;;;;;;;4.40;1.67;;;24.00;90.20;;;;;;5035569;28;20101;-66
2023/08/27 09:19:12;;;;;;;4.63;1.73;;;24.20;90.10;;;;;;5052263;28;20401;-64
2023/08/27 09:21:38;;;;;;;1.95;1.25;;;24.00;89.90;;;;;;5034115;28;20044;-64
2023/08/27 09:24:04;;;;;;;3.05;1.60;;;24.10;89.80;;;;;;5049306;28;20044;-65
2023/08/27 09:26:30;;;;;;;3.05;1.50;;;24.40;89.60;;;;;;5068899;28;20078;-63
2023/08/27 09:28:56;;;;;;;3.20;1.45;;;24.30;89.70;;;;;;5048833;28;20036;-63
2023/08/27 09:31:38;;;;;;;2.97;1.55;;;24.10;89.30;;;;;;5066472;28;20431;-64
2023/08/27 09:34:04;;;;;;;3.13;1.50;;;24.20;88.10;;;;;;5086726;28;20052;-63
2023/08/27 09:36:32;;;;;;;3.40;1.58;;;24.30;89.20;;;;;;5084692;28;20043;-64
2023/08/27 09:39:07;;;;;;;3.95;1.73;;;24.40;90.00;;;;;;5052100;28;20044;-63
2023/08/27 09:41:36;;;;;;;2.92;1.40;;;24.60;89.50;;;;;;5026504;28;20044;-64
2023/08/27 09:44:02;;;;;;;3.50;1.60;;;24.40;89.50;;;;;;5052441;28;20124;-63
2023/08/27 09:46:27;;;;;;;2.95;1.40;;;24.30;88.80;;;;;;5053226;28;20123;-63
2023/08/27 09:49:07;;;;;;;3.65;1.45;;;24.40;88.80;;;;;;5082368;28;20709;-63
2023/08/27 09:51:37;;;;;;;4.57;1.55;;;24.50;89.10;;;;;;5070708;28;20041;-62
2023/08/27 09:54:17;;;;;;;4.82;1.58;;;24.50;89.10;;;;;;5064167;28;20106;-63
2023/08/27 09:56:47;;;;;;;2.65;1.30;;;24.60;89.10;;;;;;5037040;28;20150;-72
2023/08/27 09:59:17;;;;;;;4.10;1.48;;;24.40;88.80;;;;;;5053165;28;20071;-68
2023/08/27 10:01:47;;;;;;;2.95;1.50;;;24.40;88.90;;;;;;5006708;28;20055;-70
2023/08/27 10:04:13;;;;;;;3.30;1.33;;;24.60;88.90;;;;;;5062384;28;20051;-70
2023/08/27 10:06:39;;;;;;;3.40;1.40;;;24.60;88.50;;;;;;5053161;28;20045;-65
2023/08/27 10:09:05;;;;;;;4.05;1.58;;;24.50;88.30;;;;;;5051070;28;20045;-66
2023/08/27 10:11:32;;;;;;;3.97;1.45;;;24.50;88.40;;;;;;5052806;28;20134;-69
2023/08/27 10:13:59;;;;;;;3.38;1.52;;;24.40;88.30;;;;;;5070104;28;20462;-70
2023/08/27 10:16:26;;;;;;;3.55;1.45;;;24.60;88.50;;;;;;5071667;28;20062;-70
2023/08/27 10:18:52;;;;;;;3.50;1.60;;;24.90;88.70;;;;;;5069209;28;20127;-67
2023/08/27 10:21:18;;;;;;;3.40;1.40;;;24.90;88.60;;;;;;5071681;28;20381;-68
2023/08/27 10:23:44;;;;;;;4.93;1.63;;;24.70;88.20;;;;;;5036651;28;20041;-71
2023/08/27 10:26:10;;;;;;;3.42;1.63;;;24.50;88.30;;;;;;5035629;28;20056;-67
2023/08/27 10:28:36;;;;;;;3.95;1.70;;;24.60;88.10;;;;;;5069162;28;20504;-61
2023/08/27 10:31:05;;;;;;;3.72;1.58;;;24.70;88.00;;;;;;5049936;28;20045;-70
2023/08/27 10:33:31;;;;;;;3.63;1.65;;;24.60;88.30;;;;;;5052189;28;20125;-70
2023/08/27 10:36:00;;;;;;;3.33;1.55;;;24.70;88.30;;;;;;5083676;28;20129;-67
2023/08/27 10:38:25;;;;;;;2.80;1.70;;;24.40;88.30;;;;;;5069546;28;20398;-69
2023/08/27 10:40:51;;;;;;;3.70;1.50;;;24.50;88.00;;;;;;5050957;28;20051;-68
2023/08/27 10:43:21;;;;;;;4.65;1.70;;;24.60;88.10;;;;;;5052822;28;20057;-72
2023/08/27 10:45:50;;;;;;;3.28;1.70;;;24.60;88.30;;;;;;5053294;28;20510;-72
2023/08/27 10:48:23;;;;;;;3.17;1.60;;;24.60;88.20;;;;;;5036560;28;20049;-68
2023/08/27 10:50:58;;;;;;;4.13;1.80;;;24.50;86.90;;;;;;5034220;28;20051;-70
2023/08/27 10:53:24;;;;;;;3.42;1.33;;;24.70;88.00;;;;;;5046890;28;20050;-66
2023/08/27 10:55:51;;;;;;;1.98;1.35;;;24.60;88.00;;;;;;5075550;28;20055;-66
2023/08/27 10:58:21;;;;;;;4.45;1.65;;;24.50;88.10;;;;;;5070465;28;20101;-68
2023/08/27 11:01:03;;;;;;;2.92;1.50;;;24.80;88.20;;;;;;5040026;28;20056;-72
2023/08/27 11:03:58;;;;;;;3.53;1.70;;;24.30;86.70;;;;;;5056704;28;20444;-66
2023/08/27 11:06:45;;;;;;;2.72;1.50;;;24.50;86.70;;;;;;5074191;28;20048;-67
2023/08/27 11:09:21;;;;;;;4.07;1.70;;;24.50;88.20;;;;;;5052998;28;20568;-67
2023/08/27 11:11:51;;;;;;;2.83;1.50;;;24.50;86.70;;;;;;5054520;28;20102;-66
2023/08/27 11:14:17;;;;;;;3.17;1.42;;;24.70;87.80;;;;;;5067447;28;20055;-70
2023/08/27 11:17:04;;;;;;;3.88;1.60;;;24.70;87.90;;;;;;5050721;28;20076;-71
2023/08/27 11:19:36;;;;;;;3.10;1.55;;;24.80;88.30;;;;;;5053289;28;20494;-70
2023/08/27 11:22:13;;;;;;;4.43;1.60;;;24.60;86.60;;;;;;5067478;28;20042;-63
2023/08/27 11:24:43;;;;;;;2.40;1.40;;;24.60;86.60;;;;;;5069400;28;20482;-63
2023/08/27 11:27:09;;;;;;;3.97;1.70;;;24.70;87.80;;;;;;5064490;28;20048;-68
2023/08/27 11:29:39;;;;;;;5.32;1.80;;;24.60;87.70;;;;;;5069406;28;20093;-64
2023/08/27 11:32:09;;;;;;;5.75;1.70;;;24.60;87.60;;;;;;5055350;28;20128;-67
2023/08/27 11:34:35;;;;;;;5.60;1.80;;;24.60;85.80;;;;;;5075158;28;20390;-63
2023/08/27 11:37:01;;;;;;;10.30;2.25;;;24.50;87.20;;;;;;5056449;28;20079;-63
2023/08/27 11:39:27;;;;;;;5.55;2.03;;;24.30;87.00;;;;;;5054819;28;20083;-73
2023/08/27 11:41:54;;;;;;;4.95;2.13;;;24.40;86.90;;;;;;5073749;28;20036;-68
2023/08/27 11:44:20;;;;;;;7.68;2.58;;;24.40;87.00;;;;;;5056229;28;20113;-72
2023/08/27 11:46:46;;;;;;;7.95;2.35;;;24.10;86.70;;;;;;5038367;28;20044;-66
2023/08/27 11:49:13;;;;;;;6.43;2.38;;;24.20;86.60;;;;;;5056561;28;20547;-69
2023/08/27 11:51:41;;;;;;;7.03;2.40;;;24.10;86.30;;;;;;5055092;28;20048;-69
2023/08/27 11:54:07;;;;;;;5.55;2.30;;;23.90;86.20;;;;;;5073519;28;20139;-69
2023/08/27 11:56:37;;;;;;;5.53;2.30;;;23.70;85.70;;;;;;5068506;28;20055;-75
2023/08/27 11:59:04;;;;;;;5.05;2.15;;;23.70;86.20;;;;;;5074099;28;20036;-73
2023/08/27 12:01:30;;;;;;;5.22;1.92;;;23.50;86.10;;;;;;5055560;28;20627;-72
2023/08/27 12:03:56;;;;;;;3.60;2.00;;;23.40;86.20;;;;;;5073733;28;20461;-67
2023/08/27 12:06:28;;;;;;;4.30;2.15;;;23.50;86.30;;;;;;5071287;28;20083;-70
2023/08/27 12:08:55;;;;;;;5.50;2.23;;;23.00;85.50;;;;;;5022844;28;20052;-68
2023/08/27 12:11:27;;;;;;;5.40;2.20;;;23.20;86.60;;;;;;5055511;28;20630;-68
2023/08/27 12:14:00;;;;;;;7.40;2.08;;;22.90;86.70;;;;;;5054824;28;20134;-62
2023/08/27 12:16:33;;;;;;;5.60;2.20;;;22.90;85.30;;;;;;5019488;28;20132;-70
2023/08/27 12:19:07;;;;;;;6.38;2.28;;;22.50;86.60;;;;;;5070886;28;20044;-70
2023/08/27 12:21:49;;;;;;;5.32;1.98;;;22.30;87.10;;;;;;5051291;28;20045;-67
2023/08/27 12:24:34;;;;;;;3.70;1.90;;;22.20;86.30;;;;;;5068200;28;20050;-68
2023/08/27 12:27:04;;;;;;;7.10;2.28;;;21.90;90.60;;;;;;5073287;28;20083;-67
2023/08/27 12:29:31;;;;;;;3.92;1.77;;;22.20;88.70;;;;;;5070412;28;20158;-66
2023/08/27 12:31:59;;;;;;;4.65;1.90;;;22.20;88.70;;;;;;5072954;28;20106;-69
2023/08/27 12:34:33;;;;;;;5.40;1.88;;;22.20;88.30;;;;;;5055090;28;20555;-71
2023/08/27 12:36:59;;;;;;;3.13;1.40;;;21.90;88.50;;;;;;5073604;28;20494;-73
2023/08/27 12:39:25;;;;;;;2.92;1.50;;;22.00;88.10;;;;;;5070642;28;20048;-72
2023/08/27 12:41:51;;;;;;;6.22;1.65;;;22.00;90.40;;;;;;5068821;28;20049;-75
2023/08/27 12:44:16;;;;;;;3.25;1.48;;;21.90;87.80;;;;;;5070774;28;20128;-68
2023/08/27 12:46:42;;;;;;;3.70;1.73;;;21.90;87.80;;;;;;5072535;28;20394;-65